Time;durP1;ratioP1;P1;durP2;ratioP2;P2;SDS_P1;SDS_P2;PMS_P1;PMS_P2;Temp;Humidity;BMP_temperature;BMP_pressure;BME280_temperature;BME280_humidity;BME280_pressure;Samples;Min_cycle;Max_cycle;Signal;HPM_P1;HPM_P2
2021/01/26 00:01:51;;;;;;;12.33;8.10;;;8.20;46.10;;;;;;5012579;28;20786;-85
2021/01/26 00:04:29;;;;;;;11.87;8.50;;;8.00;46.60;;;;;;5012250;28;20863;-85
2021/01/26 00:07:01;;;;;;;8.10;6.40;;;8.20;49.00;;;;;;5012872;28;20485;-85
2021/01/26 00:09:36;;;;;;;12.60;8.17;;;8.40;49.20;;;;;;5013131;28;20434;-85
2021/01/26 00:12:17;;;;;;;10.20;6.80;;;8.30;46.40;;;;;;5013423;28;20476;-85
2021/01/26 00:14:50;;;;;;;9.40;6.50;;;8.50;49.20;;;;;;5016571;28;20434;-85
2021/01/26 00:17:21;;;;;;;10.07;8.10;;;8.80;47.60;;;;;;5016634;28;20497;-85
2021/01/26 00:19:51;;;;;;;13.87;8.30;;;9.00;48.20;;;;;;5016848;28;20415;-86
2021/01/26 00:22:27;;;;;;;12.03;8.67;;;9.40;47.30;;;;;;5016548;28;20548;-86
2021/01/26 00:24:59;;;;;;;11.10;7.60;;;9.40;46.60;;;;;;5016158;28;20469;-86
2021/01/26 00:27:30;;;;;;;12.33;7.37;;;9.30;47.10;;;;;;5016314;28;20504;-86
2021/01/26 00:30:11;;;;;;;6.90;5.60;;;8.90;45.60;;;;;;5016898;28;20438;-86
2021/01/26 00:32:44;;;;;;;10.00;7.43;;;8.90;47.40;;;;;;5016293;28;20515;-86
2021/01/26 00:35:25;;;;;;;9.27;7.33;;;8.80;47.10;;;;;;5016962;28;20464;-86
2021/01/26 00:37:54;;;;;;;8.90;6.90;;;8.60;45.60;;;;;;5016795;28;20481;-86
2021/01/26 00:40:32;;;;;;;24.33;8.27;;;8.70;49.40;;;;;;5016525;28;20482;-86
2021/01/26 00:43:05;;;;;;;9.47;7.13;;;8.40;47.10;;;;;;5016101;28;20474;-85
2021/01/26 00:45:37;;;;;;;9.60;6.03;;;7.90;47.50;;;;;;5016895;28;20536;-85
2021/01/26 00:48:08;;;;;;;9.27;7.30;;;7.80;48.60;;;;;;5016327;28;20535;-85
2021/01/26 00:50:39;;;;;;;11.07;7.47;;;7.80;47.30;;;;;;5016057;28;20438;-85
2021/01/26 00:53:20;;;;;;;9.47;7.40;;;7.80;48.60;;;;;;5015913;28;20481;-85
2021/01/26 00:55:52;;;;;;;12.20;9.00;;;7.80;48.70;;;;;;5016406;28;20830;-85
2021/01/26 00:58:28;;;;;;;9.53;7.00;;;7.40;45.30;;;;;;5016178;28;20434;-85
2021/01/26 01:01:02;;;;;;;9.77;6.87;;;6.80;47.80;;;;;;5016139;28;20725;-85
2021/01/26 01:03:35;;;;;;;13.37;9.63;;;6.60;49.70;;;;;;5015719;28;20469;-85
2021/01/26 01:06:07;;;;;;;11.20;7.57;;;6.80;47.80;;;;;;5015652;28;20577;-85
2021/01/26 01:08:42;;;;;;;12.20;8.33;;;6.90;50.00;;;;;;5015791;28;20588;-85
2021/01/26 01:11:34;;;;;;;9.67;7.00;;;6.60;47.70;;;;;;5016084;28;20529;-85
2021/01/26 01:14:10;;;;;;;11.80;7.63;;;6.50;50.50;;;;;;5015986;28;20473;-85
2021/01/26 01:16:46;;;;;;;13.07;7.17;;;6.70;51.00;;;;;;5015443;28;20434;-85
2021/01/26 01:19:19;;;;;;;12.10;8.57;;;6.60;50.50;;;;;;5015182;28;20495;-85
2021/01/26 01:21:54;;;;;;;10.57;7.93;;;6.70;49.00;;;;;;5015387;28;20874;-85
2021/01/26 01:24:24;;;;;;;12.63;8.70;;;6.50;51.20;;;;;;5014641;28;20464;-85
2021/01/26 01:26:58;;;;;;;19.40;8.00;;;6.30;47.50;;;;;;5015192;28;20871;-85
2021/01/26 01:29:44;;;;;;;10.40;7.10;;;6.50;49.90;;;;;;5015902;28;20453;-85
2021/01/26 01:32:14;;;;;;;10.83;8.30;;;6.10;50.30;;;;;;5029646;28;20512;-86
2021/01/26 01:34:52;;;;;;;10.43;7.30;;;6.00;47.10;;;;;;5039832;28;20509;-86
2021/01/26 01:37:20;;;;;;;7.80;5.87;;;5.80;51.40;;;;;;5019486;28;20508;-85
2021/01/26 01:39:51;;;;;;;11.77;8.70;;;6.10;52.00;;;;;;5016004;28;20812;-85
2021/01/26 01:42:24;;;;;;;12.57;7.30;;;6.20;49.40;;;;;;5015224;28;20458;-86
2021/01/26 01:45:03;;;;;;;10.13;6.83;;;5.90;48.80;;;;;;5015807;28;20439;-84
2021/01/26 01:47:40;;;;;;;10.27;7.27;;;5.60;51.10;;;;;;5015995;28;20867;-85
2021/01/26 01:50:11;;;;;;;12.17;8.03;;;5.90;53.30;;;;;;5015871;28;20449;-86
2021/01/26 01:52:43;;;;;;;12.87;7.80;;;6.00;50.40;;;;;;5015700;28;20466;-86
2021/01/26 01:55:26;;;;;;;9.50;7.27;;;6.20;51.10;;;;;;5014721;28;20454;-86
2021/01/26 01:58:01;;;;;;;13.43;8.37;;;6.50;51.80;;;;;;5014611;28;20450;-85
2021/01/26 02:00:35;;;;;;;9.87;7.40;;;6.60;49.20;;;;;;5014512;28;20497;-85
2021/01/26 02:03:10;;;;;;;13.30;8.13;;;6.60;51.20;;;;;;5014597;28;20492;-86
2021/01/26 02:05:45;;;;;;;10.43;7.73;;;6.30;49.40;;;;;;5014685;28;20808;-85
2021/01/26 02:08:21;;;;;;;7.70;6.40;;;6.00;51.00;;;;;;5014783;28;20476;-85
2021/01/26 02:10:53;;;;;;;12.53;7.23;;;6.10;52.30;;;;;;5014928;28;20470;-86
2021/01/26 02:13:23;;;;;;;13.93;7.63;;;6.20;50.30;;;;;;5014769;28;20481;-86
2021/01/26 02:15:59;;;;;;;10.53;7.80;;;6.40;50.10;;;;;;5014876;28;20447;-86
2021/01/26 02:18:56;;;;;;;8.67;6.90;;;6.20;47.60;;;;;;5014988;28;20430;-86
2021/01/26 02:22:00;;;;;;;12.30;8.70;;;6.30;49.60;;;;;;5014700;28;20935;-86
2021/01/26 02:25:01;;;;;;;11.33;7.40;;;5.90;47.00;;;;;;5013826;28;20458;-86
2021/01/26 02:28:16;;;;;;;9.87;6.97;;;5.80;49.20;;;;;;5018954;28;20488;-86
2021/01/26 02:30:57;;;;;;;10.63;7.47;;;6.60;50.50;;;;;;5015944;28;20513;-86
2021/01/26 02:34:02;;;;;;;7.83;6.60;;;6.90;49.20;;;;;;5038351;28;20458;-85
2021/01/26 02:36:59;;;;;;;8.10;5.30;;;7.40;47.10;;;;;;5037894;28;20450;-86
2021/01/26 02:39:54;;;;;;;11.30;8.40;;;7.70;48.60;;;;;;5037618;28;20434;-86
2021/01/26 02:42:50;;;;;;;11.00;6.53;;;7.60;48.50;;;;;;5037961;28;20466;-86
2021/01/26 02:45:35;;;;;;;8.53;6.13;;;7.80;47.50;;;;;;5037448;28;20422;-86
2021/01/26 02:48:40;;;;;;;10.70;7.27;;;7.80;48.60;;;;;;5036474;28;20504;-86
2021/01/26 02:51:18;;;;;;;14.70;7.63;;;7.70;48.60;;;;;;5037980;28;20478;-86
2021/01/26 02:53:56;;;;;;;11.60;7.80;;;7.40;47.70;;;;;;5037125;28;20450;-86
2021/01/26 02:56:40;;;;;;;9.57;7.30;;;7.20;45.30;;;;;;5037386;28;20430;-86
2021/01/26 02:59:20;;;;;;;9.57;6.53;;;7.00;48.00;;;;;;5037521;28;20476;-86
2021/01/26 03:02:16;;;;;;;11.13;8.50;;;6.40;46.50;;;;;;5050632;28;20500;-86
2021/01/26 03:04:54;;;;;;;11.43;7.40;;;5.80;47.00;;;;;;5052942;28;20453;-86
2021/01/26 03:07:33;;;;;;;10.40;7.57;;;5.90;49.00;;;;;;5045173;28;20468;-86
2021/01/26 03:10:09;;;;;;;10.97;7.70;;;5.40;46.60;;;;;;5023968;28;20449;-86
2021/01/26 03:12:51;;;;;;;11.77;8.23;;;5.50;49.40;;;;;;5013962;28;20476;-86
2021/01/26 03:15:22;;;;;;;13.00;9.30;;;5.70;50.10;;;;;;5013470;28;20438;-86
2021/01/26 03:18:03;;;;;;;11.57;8.17;;;6.00;48.80;;;;;;5014267;28;20445;-86
2021/01/26 03:20:45;;;;;;;17.30;9.97;;;6.00;49.50;;;;;;5013701;28;20504;-86
2021/01/26 03:23:17;;;;;;;14.80;8.03;;;6.20;47.30;;;;;;5032712;28;20477;-87
2021/01/26 03:25:56;;;;;;;12.93;8.90;;;5.70;49.20;;;;;;5033305;28;20483;-86
2021/01/26 03:28:32;;;;;;;13.17;8.53;;;5.40;46.70;;;;;;5032714;28;20467;-86
2021/01/26 03:31:02;;;;;;;14.20;9.27;;;5.60;50.40;;;;;;5033047;28;20565;-86
2021/01/26 03:33:36;;;;;;;12.37;8.20;;;5.10;50.40;;;;;;5032869;28;20459;-85
2021/01/26 03:36:05;;;;;;;12.57;7.47;;;4.70;50.50;;;;;;5032793;28;20436;-86
2021/01/26 03:38:35;;;;;;;15.47;8.97;;;5.00;54.00;;;;;;5033233;28;20441;-85
2021/01/26 03:41:10;;;;;;;14.40;7.97;;;4.50;50.10;;;;;;5033090;28;20445;-86
2021/01/26 03:44:00;;;;;;;13.97;9.77;;;4.70;52.00;;;;;;5033017;28;20907;-86
2021/01/26 03:46:56;;;;;;;17.57;8.47;;;4.90;49.00;;;;;;4985868;28;20466;-86
2021/01/26 03:49:51;;;;;;;12.27;7.40;;;4.70;49.90;;;;;;4993460;28;20501;-86
2021/01/26 03:52:40;;;;;;;14.27;9.87;;;5.10;52.50;;;;;;4993467;28;20470;-86
2021/01/26 03:55:25;;;;;;;9.83;6.93;;;5.50;50.90;;;;;;5009323;28;20444;-86
2021/01/26 03:58:10;;;;;;;10.40;7.73;;;5.80;50.50;;;;;;5033222;28;20457;-87
2021/01/26 04:00:44;;;;;;;13.60;9.30;;;5.90;52.10;;;;;;5032590;28;20436;-87
2021/01/26 04:03:34;;;;;;;14.83;9.33;;;5.80;48.60;;;;;;5031316;28;20488;-87
2021/01/26 04:06:10;;;;;;;12.27;7.80;;;5.50;48.30;;;;;;5019033;28;20494;-87
2021/01/26 04:09:00;;;;;;;13.43;8.70;;;5.20;51.50;;;;;;5012800;28;20558;-87
2021/01/26 04:11:40;;;;;;;11.27;6.53;;;5.20;50.80;;;;;;5015065;28;20454;-87
2021/01/26 04:14:19;;;;;;;15.10;8.33;;;5.30;51.50;;;;;;5015144;28;20510;-87
2021/01/26 04:16:58;;;;;;;12.80;8.20;;;5.20;48.70;;;;;;5014707;28;20545;-87
2021/01/26 04:19:33;;;;;;;12.57;6.80;;;5.60;53.70;;;;;;5012403;28;20932;-87
2021/01/26 04:22:07;;;;;;;13.97;8.67;;;5.30;50.70;;;;;;5031351;28;20469;-87
2021/01/26 04:24:37;;;;;;;13.40;7.50;;;5.30;50.80;;;;;;5037200;28;20422;-86
2021/01/26 04:27:12;;;;;;;13.53;8.57;;;5.00;50.30;;;;;;5037168;28;20421;-86
2021/01/26 04:29:43;;;;;;;12.47;7.77;;;4.70;50.10;;;;;;5037224;28;20423;-86
2021/01/26 04:32:30;;;;;;;11.90;7.70;;;4.50;51.40;;;;;;5036854;28;20449;-86
2021/01/26 04:35:07;;;;;;;12.10;8.00;;;4.50;51.00;;;;;;5036432;28;20489;-86
2021/01/26 04:37:39;;;;;;;11.63;7.90;;;4.70;51.10;;;;;;5037187;28;20417;-85
2021/01/26 04:40:20;;;;;;;12.43;6.80;;;4.90;51.30;;;;;;5037190;28;20433;-87
2021/01/26 04:43:02;;;;;;;14.23;8.63;;;4.90;52.90;;;;;;5037264;28;20570;-86
2021/01/26 04:45:46;;;;;;;12.83;8.73;;;4.70;49.10;;;;;;5037118;28;20424;-86
2021/01/26 04:48:27;;;;;;;13.97;7.80;;;4.30;51.80;;;;;;5036080;28;20869;-86
2021/01/26 04:50:58;;;;;;;14.93;9.77;;;4.30;52.40;;;;;;5013627;28;20449;-87
2021/01/26 04:53:50;;;;;;;10.57;7.57;;;4.70;51.40;;;;;;5013073;28;20544;-87
2021/01/26 04:56:26;;;;;;;16.43;9.33;;;4.60;52.00;;;;;;5014290;28;20430;-87
2021/01/26 04:59:19;;;;;;;11.03;7.63;;;4.90;52.70;;;;;;5012917;28;20433;-87
2021/01/26 05:02:22;;;;;;;15.60;10.60;;;4.60;52.60;;;;;;5016313;28;20948;-87
2021/01/26 05:04:59;;;;;;;17.47;9.60;;;4.50;49.60;;;;;;5014558;28;20529;-87
2021/01/26 05:07:35;;;;;;;16.40;9.00;;;4.30;49.10;;;;;;5017398;28;20480;-87
2021/01/26 05:10:10;;;;;;;13.57;7.60;;;4.20;52.20;;;;;;5016435;28;20916;-87
2021/01/26 05:12:53;;;;;;;10.77;7.50;;;4.30;51.70;;;;;;5015900;28;21055;-87
2021/01/26 05:15:25;;;;;;;10.43;7.40;;;4.60;49.90;;;;;;5016221;28;20766;-87
2021/01/26 05:17:57;;;;;;;20.00;9.10;;;4.40;51.10;;;;;;5015830;28;20516;-87
2021/01/26 05:20:34;;;;;;;10.93;7.37;;;4.00;49.00;;;;;;5016504;28;20494;-87
2021/01/26 05:23:14;;;;;;;11.80;7.97;;;3.70;50.00;;;;;;5030290;28;20502;-87
2021/01/26 05:25:45;;;;;;;14.70;8.67;;;4.10;52.00;;;;;;5020252;28;20619;-87
2021/01/26 05:28:13;;;;;;;8.60;6.47;;;3.90;49.90;;;;;;5015666;28;20993;-87
2021/01/26 05:30:41;;;;;;;13.03;8.73;;;3.70;53.30;;;;;;5015403;28;20447;-87
2021/01/26 05:33:16;;;;;;;15.10;9.27;;;3.70;51.50;;;;;;5015343;28;20464;-87
2021/01/26 05:35:51;;;;;;;12.20;7.80;;;4.20;52.80;;;;;;5015692;28;20897;-87
2021/01/26 05:38:37;;;;;;;13.10;8.10;;;4.00;51.80;;;;;;5015582;28;20433;-87
2021/01/26 05:41:09;;;;;;;13.20;8.30;;;3.50;51.60;;;;;;4990934;28;20454;-87
2021/01/26 05:43:38;;;;;;;13.57;7.73;;;3.60;52.50;;;;;;5016013;28;20808;-87
2021/01/26 05:46:09;;;;;;;16.07;8.93;;;3.80;52.70;;;;;;5015811;28;20439;-87
2021/01/26 05:48:59;;;;;;;10.20;6.97;;;4.10;50.70;;;;;;5015512;28;20554;-87
2021/01/26 05:51:33;;;;;;;19.53;8.90;;;4.10;51.40;;;;;;5015484;28;20462;-87
2021/01/26 05:54:11;;;;;;;13.63;7.87;;;4.10;52.30;;;;;;5022761;28;20478;-87
2021/01/26 05:56:48;;;;;;;16.27;7.93;;;4.50;52.10;;;;;;5015359;28;20469;-87
2021/01/26 05:59:29;;;;;;;11.27;7.47;;;4.50;49.90;;;;;;5015671;28;20429;-87
2021/01/26 06:02:12;;;;;;;13.10;7.93;;;4.20;53.00;;;;;;5015150;28;20434;-87
2021/01/26 06:04:41;;;;;;;12.40;5.87;;;4.70;49.60;;;;;;5015694;28;20534;-88
2021/01/26 06:07:20;;;;;;;9.80;6.67;;;4.90;52.00;;;;;;5015502;28;20461;-87
2021/01/26 06:09:59;;;;;;;12.47;7.93;;;5.00;51.10;;;;;;5019684;28;20402;-87
2021/01/26 06:12:30;;;;;;;9.50;6.50;;;5.00;48.50;;;;;;5039339;28;20461;-87
2021/01/26 06:15:11;;;;;;;9.63;6.77;;;5.20;49.00;;;;;;5039334;28;20427;-86
2021/01/26 06:17:44;;;;;;;10.97;7.33;;;4.80;48.40;;;;;;5039384;28;20426;-86
2021/01/26 06:20:19;;;;;;;11.17;7.13;;;4.70;52.90;;;;;;5038566;28;20422;-86
2021/01/26 06:22:50;;;;;;;11.23;6.67;;;4.50;52.00;;;;;;5045331;28;20465;-86
2021/01/26 06:25:27;;;;;;;15.23;6.73;;;4.90;50.30;;;;;;5058263;28;20444;-86
2021/01/26 06:28:13;;;;;;;15.50;7.77;;;5.20;49.20;;;;;;5058763;28;20986;-86
2021/01/26 06:30:52;;;;;;;7.30;5.30;;;5.00;50.80;;;;;;5058770;28;20436;-86
2021/01/26 06:33:50;;;;;;;12.47;6.43;;;4.90;50.30;;;;;;5058404;28;20455;-86
2021/01/26 06:36:42;;;;;;;12.10;7.10;;;4.80;49.00;;;;;;5058791;28;20443;-87
2021/01/26 06:39:38;;;;;;;11.93;7.20;;;4.50;48.90;;;;;;5017891;28;20453;-87
2021/01/26 06:42:18;;;;;;;9.87;5.80;;;4.20;50.60;;;;;;5015158;28;20487;-85
2021/01/26 06:45:21;;;;;;;8.80;6.17;;;4.20;53.20;;;;;;5017831;28;20509;-87
2021/01/26 06:48:27;;;;;;;8.13;5.73;;;4.60;53.70;;;;;;5016906;28;20497;-87
2021/01/26 06:51:40;;;;;;;7.87;5.10;;;4.30;50.20;;;;;;5013339;28;20428;-86
2021/01/26 06:54:27;;;;;;;10.83;5.17;;;4.30;53.00;;;;;;4940143;29;20446;-86
2021/01/26 06:57:21;;;;;;;11.37;6.20;;;4.40;50.80;;;;;;4939721;29;20448;-87
2021/01/26 07:00:09;;;;;;;10.50;6.47;;;4.50;52.40;;;;;;4939426;29;20448;-86
2021/01/26 07:03:10;;;;;;;8.63;5.30;;;4.20;49.70;;;;;;4939511;28;20546;-86
2021/01/26 07:06:02;;;;;;;8.93;5.50;;;4.10;51.80;;;;;;4927449;28;20448;-86
2021/01/26 07:09:05;;;;;;;7.93;5.30;;;4.70;50.80;;;;;;4934948;28;20504;-87
2021/01/26 07:12:03;;;;;;;6.27;4.40;;;5.20;50.20;;;;;;4918198;29;20864;-88
2021/01/26 07:15:02;;;;;;;13.70;5.37;;;4.90;49.20;;;;;;4933838;28;20441;-87
2021/01/26 07:17:42;;;;;;;9.40;5.70;;;4.50;51.40;;;;;;4958748;29;20470;-86
2021/01/26 07:20:21;;;;;;;13.53;6.50;;;4.10;50.10;;;;;;4971919;28;20574;-86
2021/01/26 07:23:04;;;;;;;8.63;5.47;;;3.70;50.40;;;;;;4977020;28;20465;-86
2021/01/26 07:25:51;;;;;;;8.60;5.63;;;3.70;51.70;;;;;;4974457;28;20522;-87
2021/01/26 07:29:00;;;;;;;11.43;4.80;;;3.90;51.80;;;;;;4996520;28;20503;-87
2021/01/26 07:31:48;;;;;;;12.73;4.53;;;4.20;50.40;;;;;;4989712;28;20466;-88
2021/01/26 07:34:33;;;;;;;10.10;5.17;;;4.40;51.00;;;;;;5013449;28;20538;-88
2021/01/26 07:37:14;;;;;;;8.40;5.23;;;4.50;52.10;;;;;;5033164;28;20475;-88
2021/01/26 07:39:51;;;;;;;7.77;4.60;;;4.90;50.50;;;;;;4997619;28;20849;-87
2021/01/26 07:42:35;;;;;;;6.00;4.30;;;4.80;49.60;;;;;;4997806;28;20497;-88
2021/01/26 07:45:21;;;;;;;7.03;4.93;;;5.20;51.30;;;;;;5031768;28;20460;-88
2021/01/26 07:47:56;;;;;;;6.57;4.70;;;4.80;49.90;;;;;;5014253;28;20474;-88
2021/01/26 07:50:36;;;;;;;15.60;4.77;;;4.50;48.10;;;;;;5014454;28;20576;-88
2021/01/26 07:53:16;;;;;;;9.10;4.80;;;4.30;50.90;;;;;;5017320;28;20482;-88
2021/01/26 07:55:53;;;;;;;6.50;4.83;;;4.50;51.40;;;;;;5016951;28;20780;-88
2021/01/26 07:58:35;;;;;;;5.90;4.53;;;4.40;50.40;;;;;;5014758;28;20437;-88
2021/01/26 08:01:08;;;;;;;8.20;5.03;;;4.70;50.10;;;;;;5016347;28;20921;-88
2021/01/26 08:03:43;;;;;;;5.83;3.40;;;4.50;47.50;;;;;;5020347;28;20876;-88
2021/01/26 08:06:52;;;;;;;11.57;4.50;;;4.90;51.90;;;;;;5022208;28;20441;-88
2021/01/26 08:09:39;;;;;;;8.50;4.97;;;5.10;48.60;;;;;;5039362;28;20608;-88
2021/01/26 08:12:16;;;;;;;5.37;4.10;;;4.70;47.80;;;;;;5038750;28;20880;-88
2021/01/26 08:15:07;;;;;;;6.13;4.50;;;4.90;51.90;;;;;;5039091;28;20532;-88
2021/01/26 08:17:39;;;;;;;8.43;4.87;;;5.60;49.60;;;;;;5028778;28;20923;-88
2021/01/26 08:20:19;;;;;;;6.90;5.10;;;5.80;49.40;;;;;;5023914;28;20454;-88
2021/01/26 08:23:02;;;;;;;7.33;4.43;;;5.20;46.50;;;;;;5041507;28;21093;-88
2021/01/26 08:25:54;;;;;;;16.83;5.60;;;5.70;49.30;;;;;;5039014;28;20487;-88
2021/01/26 08:28:59;;;;;;;6.30;3.53;;;6.10;49.00;;;;;;5034085;28;20476;-88
2021/01/26 08:31:38;;;;;;;9.87;4.57;;;6.50;49.90;;;;;;5034175;28;20845;-88
2021/01/26 08:34:38;;;;;;;5.50;3.87;;;6.90;46.30;;;;;;5029370;28;20473;-88
2021/01/26 08:37:46;;;;;;;7.77;5.17;;;7.10;46.70;;;;;;5023005;28;20437;-88
2021/01/26 08:43:07;;;;;;;7.10;3.80;;;5.90;49.00;;;;;;5041111;28;20473;-88
2021/01/26 08:45:58;;;;;;;5.57;4.03;;;5.50;48.90;;;;;;5025139;28;20453;-88
2021/01/26 08:48:31;;;;;;;8.03;4.90;;;5.60;52.50;;;;;;4997852;28;20645;-88
2021/01/26 08:51:28;;;;;;;14.33;4.70;;;5.80;47.00;;;;;;5004655;28;20754;-88
2021/01/26 08:53:57;;;;;;;6.20;4.20;;;5.50;46.70;;;;;;5008200;28;20476;-89
2021/01/26 08:56:55;;;;;;;9.27;5.57;;;6.10;51.20;;;;;;5040091;28;20856;-89
2021/01/26 08:59:43;;;;;;;6.10;4.60;;;6.10;47.10;;;;;;5037709;28;20950;-88
2021/01/26 09:02:55;;;;;;;;;;;;;;;;;;;;;
2021/01/26 09:05:57;;;;;;;7.87;5.23;;;6.30;47.00;;;;;;4996464;28;20868;-88
2021/01/26 09:08:57;;;;;;;13.37;5.50;;;6.60;43.10;;;;;;4938489;29;20987;-89
2021/01/26 09:11:54;;;;;;;7.37;4.57;;;6.40;44.00;;;;;;4963884;28;20942;-88
2021/01/26 09:14:48;;;;;;;8.70;4.90;;;6.50;47.70;;;;;;4959102;28;20947;-88
2021/01/26 09:17:37;;;;;;;9.57;4.53;;;6.70;45.90;;;;;;4919436;29;20463;-88
2021/01/26 09:20:16;;;;;;;6.50;4.30;;;6.80;46.60;;;;;;4919591;29;20913;-88
2021/01/26 09:23:02;;;;;;;8.87;5.00;;;7.00;48.00;;;;;;4903871;29;20459;-88
2021/01/26 09:25:37;;;;;;;5.70;4.30;;;7.30;50.20;;;;;;4919786;29;20960;-89
2021/01/26 09:28:09;;;;;;;12.13;4.80;;;7.30;47.30;;;;;;4920338;29;21009;-89
2021/01/26 09:30:44;;;;;;;14.80;5.00;;;7.00;45.50;;;;;;4921025;29;20850;-88
2021/01/26 09:33:29;;;;;;;7.07;4.17;;;6.90;43.90;;;;;;4920127;29;20620;-88
2021/01/26 09:36:12;;;;;;;6.20;4.60;;;7.00;47.70;;;;;;4901079;29;20436;-88
2021/01/26 09:39:01;;;;;;;8.83;4.17;;;7.30;46.00;;;;;;4902924;29;20416;-88
2021/01/26 09:41:48;;;;;;;10.53;4.37;;;7.60;45.20;;;;;;4914738;28;20444;-88
2021/01/26 09:44:21;;;;;;;15.03;7.30;;;7.70;45.40;;;;;;4962608;28;20918;-88
2021/01/26 09:47:06;;;;;;;11.43;5.30;;;7.80;43.50;;;;;;4969504;28;20537;-88
2021/01/26 09:49:50;;;;;;;8.20;4.20;;;7.50;42.10;;;;;;4964829;28;20511;-88
2021/01/26 09:52:40;;;;;;;10.63;5.80;;;7.70;46.20;;;;;;4978488;28;20475;-88
2021/01/26 09:55:16;;;;;;;8.00;4.63;;;7.80;45.20;;;;;;5029898;28;20456;-89
2021/01/26 09:57:50;;;;;;;9.47;4.77;;;8.10;46.50;;;;;;5037170;28;20440;-88
2021/01/26 10:00:39;;;;;;;8.57;4.20;;;8.50;46.00;;;;;;5036595;28;21011;-88
2021/01/26 10:03:21;;;;;;;10.03;5.47;;;8.50;45.40;;;;;;5038848;28;20485;-89
2021/01/26 10:05:56;;;;;;;10.43;6.40;;;8.80;44.60;;;;;;5037854;28;20434;-89
2021/01/26 10:08:34;;;;;;;14.10;5.80;;;8.20;42.00;;;;;;5036458;28;20475;-89
2021/01/26 10:11:18;;;;;;;10.53;5.60;;;7.40;45.70;;;;;;5037108;28;20912;-89
2021/01/26 10:13:56;;;;;;;8.10;5.97;;;7.50;46.80;;;;;;5019810;28;20469;-89
2021/01/26 10:16:52;;;;;;;9.13;4.60;;;8.10;46.70;;;;;;5026451;28;20428;-88
2021/01/26 10:19:37;;;;;;;7.50;4.67;;;8.50;46.10;;;;;;5019410;28;20419;-87
2021/01/26 10:22:14;;;;;;;11.33;5.33;;;7.80;46.60;;;;;;5002841;28;20838;-88
2021/01/26 10:24:49;;;;;;;11.00;5.60;;;7.50;44.10;;;;;;4998928;28;20450;-88
2021/01/26 10:27:36;;;;;;;9.57;5.70;;;7.00;46.80;;;;;;5020264;28;20430;-88
2021/01/26 10:30:27;;;;;;;10.37;5.33;;;7.20;46.40;;;;;;5016997;28;20556;-88
2021/01/26 10:33:02;;;;;;;8.17;5.60;;;6.70;47.30;;;;;;5017494;28;20967;-88
2021/01/26 10:35:57;;;;;;;9.63;5.43;;;7.00;48.00;;;;;;5015979;28;20519;-88
2021/01/26 10:44:28;;;;;;;10.93;5.10;;;7.60;44.60;;;;;;5030737;28;20553;-88
2021/01/26 10:47:24;;;;;;;11.57;6.00;;;6.80;45.00;;;;;;5036326;28;20904;-88
2021/01/26 10:50:02;;;;;;;10.10;4.80;;;6.30;46.10;;;;;;5032901;28;20550;-88
2021/01/26 10:52:48;;;;;;;11.50;5.90;;;6.50;46.70;;;;;;5037868;28;20496;-88
2021/01/26 10:55:23;;;;;;;14.73;6.60;;;6.10;46.20;;;;;;5038438;28;20560;-88
2021/01/26 10:57:56;;;;;;;25.33;6.10;;;6.10;46.90;;;;;;5037035;28;20802;-88
2021/01/26 11:00:42;;;;;;;12.63;6.50;;;6.40;47.50;;;;;;5037998;28;20449;-88
2021/01/26 11:03:24;;;;;;;11.00;5.50;;;6.30;47.40;;;;;;5036536;28;21005;-88
2021/01/26 11:06:12;;;;;;;9.63;5.90;;;6.30;47.50;;;;;;5035515;28;20430;-87
2021/01/26 11:08:53;;;;;;;8.97;5.13;;;6.30;46.20;;;;;;5034395;28;20631;-88
2021/01/26 11:11:29;;;;;;;11.13;4.80;;;6.50;46.60;;;;;;5034508;28;20572;-88
2021/01/26 11:14:19;;;;;;;7.33;4.60;;;6.40;47.50;;;;;;5034905;28;20484;-88
2021/01/26 11:16:58;;;;;;;6.57;4.50;;;6.90;45.70;;;;;;5035123;28;20895;-88
2021/01/26 11:20:03;;;;;;;7.20;4.73;;;7.10;45.00;;;;;;5033250;28;20503;-88
2021/01/26 11:22:41;;;;;;;13.67;5.07;;;7.00;46.00;;;;;;5015781;28;20492;-88
2021/01/26 11:28:52;;;;;;;;;;;;;;;;;;;;;
2021/01/26 11:31:32;;;;;;;5.97;4.20;;;6.40;44.50;;;;;;5033431;28;20475;-88
2021/01/26 11:34:15;;;;;;;6.70;4.57;;;6.40;48.10;;;;;;5032668;28;21018;-88
2021/01/26 11:37:04;;;;;;;7.13;5.00;;;6.90;45.30;;;;;;5033002;28;20489;-88
2021/01/26 11:39:46;;;;;;;9.13;5.20;;;6.80;45.00;;;;;;5033727;28;20799;-88
2021/01/26 11:42:35;;;;;;;8.47;4.87;;;7.50;45.00;;;;;;5034159;28;20477;-87
2021/01/26 11:48:15;;;;;;;10.63;4.37;;;7.40;47.20;;;;;;5031209;28;20460;-87
2021/01/26 11:51:16;;;;;;;6.10;3.83;;;8.10;44.80;;;;;;4973993;28;20546;-87
2021/01/26 11:54:09;;;;;;;14.30;4.33;;;7.70;45.40;;;;;;4973235;28;20539;-87
2021/01/26 11:56:51;;;;;;;9.03;3.90;;;7.80;44.10;;;;;;4934648;29;21042;-87
2021/01/26 11:59:50;;;;;;;6.60;4.37;;;8.10;46.40;;;;;;4933360;29;20449;-87
2021/01/26 12:02:32;;;;;;;8.53;4.13;;;7.90;41.00;;;;;;4803675;29;21017;-87
2021/01/26 12:05:16;;;;;;;7.40;4.67;;;8.00;41.20;;;;;;4805191;29;20513;-87
2021/01/26 12:08:11;;;;;;;9.60;4.60;;;8.30;43.90;;;;;;4803334;29;20898;-87
2021/01/26 12:11:08;;;;;;;4.60;3.73;;;8.00;40.30;;;;;;4810082;29;20472;-87
2021/01/26 12:20:01;;;;;;;7.60;4.07;;;8.70;44.40;;;;;;4736473;30;20466;-88
2021/01/26 12:22:46;;;;;;;4.10;3.40;;;8.70;39.30;;;;;;4737506;30;20487;-87
2021/01/26 12:25:30;;;;;;;5.23;3.63;;;8.00;45.10;;;;;;4738458;30;20475;-87
2021/01/26 12:34:50;;;;;;;7.27;4.17;;;8.00;42.30;;;;;;4934911;29;20528;-88
2021/01/26 12:37:55;;;;;;;6.93;4.03;;;8.60;43.10;;;;;;4940357;29;20925;-87
2021/01/26 12:40:52;;;;;;;11.50;4.00;;;8.30;43.50;;;;;;4939942;29;20805;-88
2021/01/26 12:43:32;;;;;;;8.07;4.03;;;8.40;45.70;;;;;;4955284;28;20527;-88
2021/01/26 12:46:11;;;;;;;6.23;3.80;;;9.00;42.10;;;;;;4959685;29;20467;-88
2021/01/26 12:49:06;;;;;;;7.63;3.67;;;8.70;43.50;;;;;;4976475;28;20917;-87
2021/01/26 12:51:43;;;;;;;15.90;3.97;;;8.30;40.50;;;;;;5032078;28;20444;-87
2021/01/26 12:54:12;;;;;;;10.83;4.63;;;8.80;39.90;;;;;;5041185;28;20438;-87
2021/01/26 12:59:55;;;;;;;5.43;3.63;;;8.40;44.70;;;;;;5013842;28;20467;-86
2021/01/26 13:02:27;;;;;;;6.37;4.10;;;8.30;45.20;;;;;;5039036;28;20552;-87
2021/01/26 13:05:37;;;;;;;12.93;3.60;;;8.40;41.10;;;;;;5039952;28;21016;-86
2021/01/26 13:08:32;;;;;;;4.40;3.27;;;8.10;41.90;;;;;;4958964;28;20455;-85
2021/01/26 13:11:24;;;;;;;7.60;3.60;;;8.00;45.80;;;;;;4966555;29;20475;-86
2021/01/26 13:14:22;;;;;;;7.30;4.50;;;7.90;39.00;;;;;;4981814;28;20461;-87
2021/01/26 13:19:41;;;;;;;7.70;4.70;;;8.30;43.90;;;;;;4954134;28;20523;-86
2021/01/26 13:22:11;;;;;;;5.77;4.00;;;8.20;40.10;;;;;;4955543;29;20455;-86
2021/01/26 13:25:08;;;;;;;6.10;3.43;;;8.70;40.70;;;;;;4955906;29;20437;-87
2021/01/26 13:27:49;;;;;;;10.90;4.40;;;8.90;44.50;;;;;;4955880;28;20553;-87
2021/01/26 13:30:34;;;;;;;11.97;4.60;;;8.50;37.80;;;;;;4955479;29;20615;-87
2021/01/26 13:33:11;;;;;;;7.70;3.97;;;8.70;40.90;;;;;;5031007;28;20515;-87
2021/01/26 13:35:55;;;;;;;7.77;4.10;;;8.50;42.60;;;;;;5035949;28;20442;-87
2021/01/26 13:38:32;;;;;;;5.93;4.00;;;8.80;42.80;;;;;;5035861;28;20818;-87
2021/01/26 13:41:28;;;;;;;5.70;3.83;;;8.10;43.70;;;;;;5029956;28;20445;-88
2021/01/26 13:44:32;;;;;;;5.17;3.90;;;8.60;41.30;;;;;;5035854;28;20885;-88
2021/01/26 13:47:19;;;;;;;14.30;5.40;;;8.40;38.60;;;;;;5014234;28;20487;-88
2021/01/26 13:50:30;;;;;;;10.10;3.67;;;8.40;40.50;;;;;;5035822;28;20501;-87
2021/01/26 13:53:22;;;;;;;7.17;4.27;;;8.60;43.90;;;;;;5036640;28;20465;-88
2021/01/26 13:56:00;;;;;;;7.33;4.30;;;8.00;40.10;;;;;;5035513;28;20523;-87
2021/01/26 13:58:32;;;;;;;5.70;4.27;;;7.70;40.10;;;;;;5036018;28;20432;-88
2021/01/26 14:01:10;;;;;;;8.60;3.80;;;7.70;44.60;;;;;;5038756;28;20433;-88
2021/01/26 14:03:58;;;;;;;5.87;3.93;;;7.90;44.00;;;;;;5036928;28;20469;-87
2021/01/26 14:06:47;;;;;;;7.40;4.10;;;8.00;42.70;;;;;;5034272;28;20927;-88
2021/01/26 14:12:35;;;;;;;7.30;4.00;;;8.20;43.40;;;;;;5033338;28;20472;-88
2021/01/26 14:15:29;;;;;;;8.33;4.00;;;7.70;44.60;;;;;;5036164;28;20438;-88
2021/01/26 14:18:07;;;;;;;8.50;4.10;;;8.10;44.00;;;;;;5036056;28;20819;-86
2021/01/26 14:27:49;;;;;;;;;;;;;;;;;;;;;
2021/01/26 14:30:46;;;;;;;5.23;3.87;;;8.40;43.10;;;;;;4993027;28;20478;-88
2021/01/26 14:36:38;;;;;;;5.60;3.77;;;7.80;44.60;;;;;;4985208;28;20542;-87
2021/01/26 14:39:16;;;;;;;22.50;5.97;;;8.60;44.90;;;;;;4939575;28;20462;-88
2021/01/26 14:42:17;;;;;;;18.10;4.73;;;9.00;40.30;;;;;;4974723;28;20507;-88
2021/01/26 14:45:14;;;;;;;14.40;4.67;;;9.20;43.60;;;;;;4975564;28;20439;-88
2021/01/26 14:48:09;;;;;;;17.50;5.70;;;8.70;40.80;;;;;;4981152;28;20464;-87
2021/01/26 14:50:59;;;;;;;10.30;4.23;;;8.50;41.60;;;;;;4956945;29;20544;-88
2021/01/26 14:54:12;;;;;;;;;;;;;;;;;;;;;
2021/01/26 14:57:03;;;;;;;13.13;5.13;;;8.90;40.00;;;;;;4957143;28;20974;-88
2021/01/26 14:59:39;;;;;;;8.83;4.57;;;7.80;43.10;;;;;;5015644;28;20885;-88
2021/01/26 15:02:37;;;;;;;12.53;4.70;;;7.80;43.40;;;;;;5017693;28;20862;-88
2021/01/26 15:05:35;;;;;;;5.73;4.60;;;8.30;41.90;;;;;;5019439;28;20439;-88